Kakusyunmaru — JL6732 — position and weather

sailwx.info

Track history (hours):
 
Tides and Currents Weather Stations Pressure Air Temp Water Temp Dewpoint Dewpoint Depression Visibility Wind Speed Wind Dir Waves Ship Positions

Kakusyunmaru

Last reported at 2018-Jun-19 16:01 UTC. Time now 2018-Jun-20 02:10 UTC.
Position N 35°32' E 139°58'.

Length 103 m; draft 4.8 m.

Type: Tanker. MMSI: 431501785.

Date/timePositionNaut miles runAvg speedWind from/ knotsBaromVisibWave heightAir tempDewpointWater temp
2018-Jun-19 16:01N 35°32' E 139°58'0 0.4
2018-Jun-19 16:00N 35°32' E 139°58'0 0.0
2018-Jun-19 10:29N 35°32' E 139°58'0 0.0
2018-Jun-19 09:45N 35°32' E 139°58'0 0.1
2018-Jun-19 08:59N 35°32' E 139°58'0 0.1
2018-Jun-19 08:30N 35°32' E 139°58'0 0.1
2018-Jun-19 07:54N 35°32' E 139°58'0 0.0
2018-Jun-19 07:19N 35°32' E 139°58'0 0.0
2018-Jun-19 06:57N 35°32' E 139°58'0 0.0
2018-Jun-19 06:23N 35°32' E 139°58'3 0.4
2018-Jun-18 23:08N 35°33' E 140°02'0 0.2
2018-Jun-18 22:49N 35°33' E 140°02'0 0.0
2018-Jun-18 22:30N 35°33' E 140°02'0 0.0
2018-Jun-18 22:00N 35°33' E 140°02'0 0.0
2018-Jun-18 20:49N 35°33' E 140°02'0 0.0
2018-Jun-18 20:26N 35°33' E 140°02'0 0.0
2018-Jun-18 20:00N 35°33' E 140°02'0 0.0
2018-Jun-18 19:30N 35°33' E 140°02'0 0.0
2018-Jun-18 18:57N 35°33' E 140°02'0 0.0
2018-Jun-18 18:29N 35°33' E 140°02'0 0.0
2018-Jun-18 17:54N 35°33' E 140°02'0 0.0
2018-Jun-18 17:21N 35°33' E 140°02'0 0.0
2018-Jun-18 17:00N 35°33' E 140°02'0 0.1
2018-Jun-18 16:28N 35°33' E 140°02'4 9.4
2018-Jun-18 16:00N 35°31' E 139°57'611.2
2018-Jun-18 15:30N 35°28' E 139°51'611.4
2018-Jun-18 15:00N 35°24' E 139°46'611.2
2018-Jun-18 14:30N 35°19' E 139°44'511.0
2018-Jun-18 14:00N 35°14' E 139°47'611.8
2018-Jun-18 13:30N 35°08' E 139°46'245 9.6
2018-Jun-17 12:03N 33°48' E 135°05'211.3
2018-Jun-17 11:52N 33°50' E 135°04'410.9
2018-Jun-17 11:30N 33°54' E 135°02'611.4
2018-Jun-17 11:00N 33°59' E 134°60'611.8
2018-Jun-17 10:30N 34°05' E 134°59'713.0
2018-Jun-17 10:00N 34°11' E 134°59'713.0
2018-Jun-17 09:30N 34°18' E 134°59'612.2
2018-Jun-17 09:00N 34°23' E 135°02'713.2
2018-Jun-17 08:30N 34°27' E 135°09'612.5
2018-Jun-17 08:00N 34°31' E 135°14'611.6
2018-Jun-17 07:31N 34°35' E 135°20'4 8.8
2018-Jun-17 07:00N 34°35' E 135°25'1 1.7
2018-Jun-17 06:30N 34°35' E 135°26'0 0.0
2018-Jun-17 06:00N 34°35' E 135°26'0 0.0
2018-Jun-17 05:30N 34°35' E 135°26'0 0.0
2018-Jun-17 05:00N 34°35' E 135°26'0 0.0
2018-Jun-17 04:30N 34°35' E 135°26'0 0.0
2018-Jun-17 04:00N 34°35' E 135°26'0 0.0
2018-Jun-17 03:30N 34°35' E 135°26'0 0.0
2018-Jun-17 03:00N 34°35' E 135°26'0 0.0
2018-Jun-17 02:30N 34°35' E 135°26'0 0.0
2018-Jun-17 02:00N 34°35' E 135°26'0 0.0
2018-Jun-17 01:30N 34°35' E 135°26'0 0.0
2018-Jun-17 01:00N 34°35' E 135°26'0 0.0
2018-Jun-17 00:29N 34°35' E 135°26'0 0.0
2018-Jun-17 00:00N 34°35' E 135°26'0 0.0
2018-Jun-16 23:28N 34°35' E 135°26'0 0.0
2018-Jun-16 23:00N 34°35' E 135°26'0 0.7
2018-Jun-16 22:29N 34°35' E 135°25'2 5.0
2018-Jun-16 22:00N 34°36' E 135°23'1 2.4
2018-Jun-16 21:30N 34°36' E 135°22'0 0.1
2018-Jun-16 21:00N 34°36' E 135°22'0 0.0
2018-Jun-16 20:30N 34°36' E 135°22'0 0.0
2018-Jun-16 20:00N 34°36' E 135°22'0 0.0
2018-Jun-16 19:30N 34°36' E 135°22'0 0.0
2018-Jun-16 19:01N 34°36' E 135°22'0 0.0
2018-Jun-16 18:31N 34°36' E 135°22'0 0.0
2018-Jun-16 18:00N 34°36' E 135°22'0 0.0
2018-Jun-16 17:30N 34°36' E 135°22'0 0.0
2018-Jun-16 17:00N 34°36' E 135°22'0 0.0
2018-Jun-16 16:30N 34°36' E 135°22'0 0.0
2018-Jun-16 16:01N 34°36' E 135°22'0 0.0
2018-Jun-16 15:30N 34°36' E 135°22'0 0.0
2018-Jun-16 15:01N 34°36' E 135°22'0 0.0
2018-Jun-16 14:30N 34°36' E 135°22'0 0.0
2018-Jun-16 14:00N 34°36' E 135°22'0 0.0
2018-Jun-16 13:30N 34°36' E 135°22'0 0.0
2018-Jun-16 13:01N 34°36' E 135°22'0 0.0
2018-Jun-16 12:31N 34°36' E 135°22'0 0.0
2018-Jun-16 12:00N 34°36' E 135°22'0 0.0
2018-Jun-16 11:30N 34°36' E 135°22'0 0.1
2018-Jun-16 11:01N 34°36' E 135°22'0 0.0
2018-Jun-16 10:30N 34°36' E 135°22'0 0.0
2018-Jun-16 10:00N 34°36' E 135°22'0 0.0
2018-Jun-16 09:30N 34°36' E 135°22'0 0.0
2018-Jun-16 09:01N 34°36' E 135°22'0 0.0
2018-Jun-16 08:29N 34°36' E 135°22'0 0.0
2018-Jun-16 07:58N 34°36' E 135°22'0 0.0
2018-Jun-16 07:30N 34°36' E 135°22'0 0.0
2018-Jun-16 07:00N 34°36' E 135°22'0 0.0
2018-Jun-16 06:30N 34°36' E 135°22'0 0.0
2018-Jun-16 06:00N 34°36' E 135°22'0 0.0
2018-Jun-16 05:29N 34°36' E 135°22'0 0.0
2018-Jun-16 05:00N 34°36' E 135°22'0 0.0
2018-Jun-16 04:30N 34°36' E 135°22'0 0.0
2018-Jun-16 04:00N 34°36' E 135°22'0 0.0
2018-Jun-16 03:30N 34°36' E 135°22'0 0.0
2018-Jun-16 03:00N 34°36' E 135°22'0 0.0
2018-Jun-16 02:29N 34°36' E 135°22'0 0.1
2018-Jun-16 02:00N 34°36' E 135°22'0 0.2
2018-Jun-16 01:30N 34°36' E 135°22'2 4.8
2018-Jun-16 01:00N 34°35' E 135°25'1 1.6
2018-Jun-16 00:25N 34°35' E 135°26'0 0.0
2018-Jun-16 00:00N 34°35' E 135°26'0 0.0
2018-Jun-15 23:06N 34°35' E 135°26'0 0.0
2018-Jun-15 23:00N 34°35' E 135°26'3 5.3
2018-Jun-15 22:30N 34°36' E 135°23'611.9
2018-Jun-15 22:00N 34°33' E 135°17'612.0
2018-Jun-15 21:30N 34°29' E 135°12'611.5
2018-Jun-15 21:00N 34°25' E 135°07'611.5
2018-Jun-15 20:30N 34°21' E 135°02'510.6
2018-Jun-15 20:01N 34°16' E 134°59'611.4
2018-Jun-15 19:30N 34°10' E 134°60'612.4
2018-Jun-15 19:01N 34°04' E 135°00'612.4
2018-Jun-15 18:30N 33°58' E 135°01'611.8
2018-Jun-15 18:00N 33°52' E 135°02'243 7.4
2018-Jun-14 09:06N 35°07' E 139°43'211.9
2018-Jun-14 08:55N 35°09' E 139°44'512.2
2018-Jun-14 08:29N 35°14' E 139°46'511.4
2018-Jun-14 08:00N 35°19' E 139°43'611.1
2018-Jun-14 07:31N 35°24' E 139°43'611.8
2018-Jun-14 07:00N 35°28' E 139°48'611.9
2018-Jun-14 06:30N 35°31' E 139°55'611.5
2018-Jun-14 06:00N 35°32' E 140°02'1 0.3
2018-Jun-14 01:04N 35°32' E 140°03'1 0.5
2018-Jun-13 23:30N 35°32' E 140°02'0 0.5
2018-Jun-13 23:00N 35°32' E 140°02'0 0.0
2018-Jun-13 22:30N 35°32' E 140°02'0 0.0
2018-Jun-13 22:00N 35°32' E 140°02'0 0.1
2018-Jun-13 21:30N 35°32' E 140°02'0 0.0
2018-Jun-13 21:00N 35°32' E 140°02'0 0.0
2018-Jun-13 20:30N 35°32' E 140°02'0 0.0
2018-Jun-13 20:00N 35°32' E 140°02'0 0.0
2018-Jun-13 19:30N 35°32' E 140°02'0 0.0
2018-Jun-13 19:00N 35°32' E 140°02'0 0.0
2018-Jun-13 18:31N 35°32' E 140°02'0 0.0
2018-Jun-13 18:00N 35°32' E 140°02'0 0.1
2018-Jun-13 17:30N 35°32' E 140°02'0 0.0
2018-Jun-13 17:00N 35°32' E 140°02'0 0.0
2018-Jun-13 16:31N 35°32' E 140°02'0 0.0
2018-Jun-13 16:00N 35°32' E 140°02'0 0.0
2018-Jun-13 15:29N 35°32' E 140°02'0 0.1
2018-Jun-13 14:54N 35°32' E 140°02'0 0.1
2018-Jun-13 14:28N 35°32' E 140°02'0 0.0
2018-Jun-13 14:00N 35°32' E 140°02'0 0.0
2018-Jun-13 13:30N 35°32' E 140°02'0 0.1
2018-Jun-13 12:59N 35°32' E 140°02'0 0.0
2018-Jun-13 10:45N 35°32' E 140°02'0 0.1
2018-Jun-13 10:12N 35°32' E 140°02'0 0.1
2018-Jun-13 10:00N 35°32' E 140°02'0 0.0
2018-Jun-13 09:30N 35°32' E 140°02'0 0.1
2018-Jun-13 08:49N 35°32' E 140°02'0 0.1
2018-Jun-13 08:17N 35°32' E 140°02'0 0.0
2018-Jun-13 07:58N 35°32' E 140°02'0 0.1
2018-Jun-13 07:30N 35°32' E 140°02'0 0.0
2018-Jun-13 06:44N 35°32' E 140°02'0 0.2
2018-Jun-13 06:31N 35°32' E 140°02'0 0.1
2018-Jun-13 00:39N 35°32' E 140°02'211.7
2018-Jun-13 00:26N 35°31' E 139°59'511.9
2018-Jun-13 00:01N 35°29' E 139°53'611.4
2018-Jun-12 23:30N 35°25' E 139°48'511.0
2018-Jun-12 23:01N 35°21' E 139°45'510.0
2018-Jun-12 22:30N 35°16' E 139°47'510.3
2018-Jun-12 22:00N 35°11' E 139°46'611.7
2018-Jun-12 21:30N 35°05' E 139°44'  
2018-Jun-09 19:07N 34°59' E 136°48'0 0.1
2018-Jun-09 19:00N 34°59' E 136°48'  
Track history (hours):
 
Tides and Currents Weather Stations Pressure Air Temp Water Temp Dewpoint Dewpoint Depression Visibility Wind Speed Wind Dir Waves Ship Positions

Kakusyunmaru

Last reported at 2018-Jun-19 16:01 UTC. Time now 2018-Jun-20 02:10 UTC.
Position N 35°32' E 139°58'.

Length 103 m; draft 4.8 m.

Type: Tanker. MMSI: 431501785.

Date/timePositionNaut miles runAvg speedWind from/ knotsBaromVisibWave heightAir tempDewpointWater temp
2018-Jun-19 16:01N 35°32' E 139°58'0 0.4
2018-Jun-19 16:00N 35°32' E 139°58'0 0.0
2018-Jun-19 10:29N 35°32' E 139°58'0 0.0
2018-Jun-19 09:45N 35°32' E 139°58'0 0.1
2018-Jun-19 08:59N 35°32' E 139°58'0 0.1
2018-Jun-19 08:30N 35°32' E 139°58'0 0.1
2018-Jun-19 07:54N 35°32' E 139°58'0 0.0
2018-Jun-19 07:19N 35°32' E 139°58'0 0.0
2018-Jun-19 06:57N 35°32' E 139°58'0 0.0
2018-Jun-19 06:23N 35°32' E 139°58'3 0.4
2018-Jun-18 23:08N 35°33' E 140°02'0 0.2
2018-Jun-18 22:49N 35°33' E 140°02'0 0.0
2018-Jun-18 22:30N 35°33' E 140°02'0 0.0
2018-Jun-18 22:00N 35°33' E 140°02'0 0.0
2018-Jun-18 20:49N 35°33' E 140°02'0 0.0
2018-Jun-18 20:26N 35°33' E 140°02'0 0.0
2018-Jun-18 20:00N 35°33' E 140°02'0 0.0
2018-Jun-18 19:30N 35°33' E 140°02'0 0.0
2018-Jun-18 18:57N 35°33' E 140°02'0 0.0
2018-Jun-18 18:29N 35°33' E 140°02'0 0.0
2018-Jun-18 17:54N 35°33' E 140°02'0 0.0
2018-Jun-18 17:21N 35°33' E 140°02'0 0.0
2018-Jun-18 17:00N 35°33' E 140°02'0 0.1
2018-Jun-18 16:28N 35°33' E 140°02'4 9.4
2018-Jun-18 16:00N 35°31' E 139°57'611.2
2018-Jun-18 15:30N 35°28' E 139°51'611.4
2018-Jun-18 15:00N 35°24' E 139°46'611.2
2018-Jun-18 14:30N 35°19' E 139°44'511.0
2018-Jun-18 14:00N 35°14' E 139°47'611.8
2018-Jun-18 13:30N 35°08' E 139°46'245 9.6
2018-Jun-17 12:03N 33°48' E 135°05'211.3
2018-Jun-17 11:52N 33°50' E 135°04'410.9
2018-Jun-17 11:30N 33°54' E 135°02'611.4
2018-Jun-17 11:00N 33°59' E 134°60'611.8
2018-Jun-17 10:30N 34°05' E 134°59'713.0
2018-Jun-17 10:00N 34°11' E 134°59'713.0
2018-Jun-17 09:30N 34°18' E 134°59'612.2
2018-Jun-17 09:00N 34°23' E 135°02'713.2
2018-Jun-17 08:30N 34°27' E 135°09'612.5
2018-Jun-17 08:00N 34°31' E 135°14'611.6
2018-Jun-17 07:31N 34°35' E 135°20'4 8.8
2018-Jun-17 07:00N 34°35' E 135°25'1 1.7
2018-Jun-17 06:30N 34°35' E 135°26'0 0.0
2018-Jun-17 06:00N 34°35' E 135°26'0 0.0
2018-Jun-17 05:30N 34°35' E 135°26'0 0.0
2018-Jun-17 05:00N 34°35' E 135°26'0 0.0
2018-Jun-17 04:30N 34°35' E 135°26'0 0.0
2018-Jun-17 04:00N 34°35' E 135°26'0 0.0
2018-Jun-17 03:30N 34°35' E 135°26'0 0.0
2018-Jun-17 03:00N 34°35' E 135°26'0 0.0
2018-Jun-17 02:30N 34°35' E 135°26'0 0.0
2018-Jun-17 02:00N 34°35' E 135°26'0 0.0
2018-Jun-17 01:30N 34°35' E 135°26'0 0.0
2018-Jun-17 01:00N 34°35' E 135°26'0 0.0
2018-Jun-17 00:29N 34°35' E 135°26'0 0.0
2018-Jun-17 00:00N 34°35' E 135°26'0 0.0
2018-Jun-16 23:28N 34°35' E 135°26'0 0.0
2018-Jun-16 23:00N 34°35' E 135°26'0 0.7
2018-Jun-16 22:29N 34°35' E 135°25'2 5.0
2018-Jun-16 22:00N 34°36' E 135°23'1 2.4
2018-Jun-16 21:30N 34°36' E 135°22'0 0.1
2018-Jun-16 21:00N 34°36' E 135°22'0 0.0
2018-Jun-16 20:30N 34°36' E 135°22'0 0.0
2018-Jun-16 20:00N 34°36' E 135°22'0 0.0
2018-Jun-16 19:30N 34°36' E 135°22'0 0.0
2018-Jun-16 19:01N 34°36' E 135°22'0 0.0
2018-Jun-16 18:31N 34°36' E 135°22'0 0.0
2018-Jun-16 18:00N 34°36' E 135°22'0 0.0
2018-Jun-16 17:30N 34°36' E 135°22'0 0.0
2018-Jun-16 17:00N 34°36' E 135°22'0 0.0
2018-Jun-16 16:30N 34°36' E 135°22'0 0.0
2018-Jun-16 16:01N 34°36' E 135°22'0 0.0
2018-Jun-16 15:30N 34°36' E 135°22'0 0.0
2018-Jun-16 15:01N 34°36' E 135°22'0 0.0
2018-Jun-16 14:30N 34°36' E 135°22'0 0.0
2018-Jun-16 14:00N 34°36' E 135°22'0 0.0
2018-Jun-16 13:30N 34°36' E 135°22'0 0.0
2018-Jun-16 13:01N 34°36' E 135°22'0 0.0
2018-Jun-16 12:31N 34°36' E 135°22'0 0.0
2018-Jun-16 12:00N 34°36' E 135°22'0 0.0
2018-Jun-16 11:30N 34°36' E 135°22'0 0.1
2018-Jun-16 11:01N 34°36' E 135°22'0 0.0
2018-Jun-16 10:30N 34°36' E 135°22'0 0.0
2018-Jun-16 10:00N 34°36' E 135°22'0 0.0
2018-Jun-16 09:30N 34°36' E 135°22'0 0.0
2018-Jun-16 09:01N 34°36' E 135°22'0 0.0
2018-Jun-16 08:29N 34°36' E 135°22'0 0.0
2018-Jun-16 07:58N 34°36' E 135°22'0 0.0
2018-Jun-16 07:30N 34°36' E 135°22'0 0.0
2018-Jun-16 07:00N 34°36' E 135°22'0 0.0
2018-Jun-16 06:30N 34°36' E 135°22'0 0.0
2018-Jun-16 06:00N 34°36' E 135°22'0 0.0
2018-Jun-16 05:29N 34°36' E 135°22'0 0.0
2018-Jun-16 05:00N 34°36' E 135°22'0 0.0
2018-Jun-16 04:30N 34°36' E 135°22'0 0.0
2018-Jun-16 04:00N 34°36' E 135°22'0 0.0
2018-Jun-16 03:30N 34°36' E 135°22'0 0.0
2018-Jun-16 03:00N 34°36' E 135°22'0 0.0
2018-Jun-16 02:29N 34°36' E 135°22'0 0.1
2018-Jun-16 02:00N 34°36' E 135°22'0 0.2
2018-Jun-16 01:30N 34°36' E 135°22'2 4.8
2018-Jun-16 01:00N 34°35' E 135°25'1 1.6
2018-Jun-16 00:25N 34°35' E 135°26'0 0.0
2018-Jun-16 00:00N 34°35' E 135°26'0 0.0
2018-Jun-15 23:06N 34°35' E 135°26'0 0.0
2018-Jun-15 23:00N 34°35' E 135°26'3 5.3
2018-Jun-15 22:30N 34°36' E 135°23'611.9
2018-Jun-15 22:00N 34°33' E 135°17'612.0
2018-Jun-15 21:30N 34°29' E 135°12'611.5
2018-Jun-15 21:00N 34°25' E 135°07'611.5
2018-Jun-15 20:30N 34°21' E 135°02'510.6
2018-Jun-15 20:01N 34°16' E 134°59'611.4
2018-Jun-15 19:30N 34°10' E 134°60'612.4
2018-Jun-15 19:01N 34°04' E 135°00'612.4
2018-Jun-15 18:30N 33°58' E 135°01'611.8
2018-Jun-15 18:00N 33°52' E 135°02'243 7.4
2018-Jun-14 09:06N 35°07' E 139°43'211.9
2018-Jun-14 08:55N 35°09' E 139°44'512.2
2018-Jun-14 08:29N 35°14' E 139°46'511.4
2018-Jun-14 08:00N 35°19' E 139°43'611.1
2018-Jun-14 07:31N 35°24' E 139°43'611.8
2018-Jun-14 07:00N 35°28' E 139°48'611.9
2018-Jun-14 06:30N 35°31' E 139°55'611.5
2018-Jun-14 06:00N 35°32' E 140°02'1 0.3
2018-Jun-14 01:04N 35°32' E 140°03'1 0.5
2018-Jun-13 23:30N 35°32' E 140°02'0 0.5
2018-Jun-13 23:00N 35°32' E 140°02'0 0.0
2018-Jun-13 22:30N 35°32' E 140°02'0 0.0
2018-Jun-13 22:00N 35°32' E 140°02'0 0.1
2018-Jun-13 21:30N 35°32' E 140°02'0 0.0
2018-Jun-13 21:00N 35°32' E 140°02'0 0.0
2018-Jun-13 20:30N 35°32' E 140°02'0 0.0
2018-Jun-13 20:00N 35°32' E 140°02'0 0.0
2018-Jun-13 19:30N 35°32' E 140°02'0 0.0
2018-Jun-13 19:00N 35°32' E 140°02'0 0.0
2018-Jun-13 18:31N 35°32' E 140°02'0 0.0
2018-Jun-13 18:00N 35°32' E 140°02'0 0.1
2018-Jun-13 17:30N 35°32' E 140°02'0 0.0
2018-Jun-13 17:00N 35°32' E 140°02'0 0.0
2018-Jun-13 16:31N 35°32' E 140°02'0 0.0
2018-Jun-13 16:00N 35°32' E 140°02'0 0.0
2018-Jun-13 15:29N 35°32' E 140°02'0 0.1
2018-Jun-13 14:54N 35°32' E 140°02'0 0.1
2018-Jun-13 14:28N 35°32' E 140°02'0 0.0
2018-Jun-13 14:00N 35°32' E 140°02'0 0.0
2018-Jun-13 13:30N 35°32' E 140°02'0 0.1
2018-Jun-13 12:59N 35°32' E 140°02'0 0.0
2018-Jun-13 10:45N 35°32' E 140°02'0 0.1
2018-Jun-13 10:12N 35°32' E 140°02'0 0.1
2018-Jun-13 10:00N 35°32' E 140°02'0 0.0
2018-Jun-13 09:30N 35°32' E 140°02'0 0.1
2018-Jun-13 08:49N 35°32' E 140°02'0 0.1
2018-Jun-13 08:17N 35°32' E 140°02'0 0.0
2018-Jun-13 07:58N 35°32' E 140°02'0 0.1
2018-Jun-13 07:30N 35°32' E 140°02'0 0.0
2018-Jun-13 06:44N 35°32' E 140°02'0 0.2
2018-Jun-13 06:31N 35°32' E 140°02'0 0.1
2018-Jun-13 00:39N 35°32' E 140°02'211.7
2018-Jun-13 00:26N 35°31' E 139°59'511.9
2018-Jun-13 00:01N 35°29' E 139°53'611.4
2018-Jun-12 23:30N 35°25' E 139°48'511.0
2018-Jun-12 23:01N 35°21' E 139°45'510.0
2018-Jun-12 22:30N 35°16' E 139°47'510.3
2018-Jun-12 22:00N 35°11' E 139°46'611.7
2018-Jun-12 21:30N 35°05' E 139°44'  
2018-Jun-09 19:07N 34°59' E 136°48'0 0.1
2018-Jun-09 19:00N 34°59' E 136°48'  

Dump ship's entire track history